Time;durP1;ratioP1;P1;durP2;ratioP2;P2;SDS_P1;SDS_P2;PMS_P1;PMS_P2;Temp;Humidity;BMP_temperature;BMP_pressure;BME280_temperature;BME280_humidity;BME280_pressure;Samples;Min_cycle;Max_cycle;Signal;HPM_P1;HPM_P2
2024/02/16 00:00:08;;;;;;;3.22;1.80;;;12.50;99.90;;;;;;5044597;28;20048;-69
2024/02/16 00:02:33;;;;;;;4.32;1.90;;;12.50;99.90;;;;;;5028970;28;20419;-69
2024/02/16 00:04:59;;;;;;;4.38;2.38;;;12.60;99.90;;;;;;5043085;28;20017;-70
2024/02/16 00:07:25;;;;;;;11.75;3.33;;;12.50;99.90;;;;;;5049906;28;20420;-69
2024/02/16 00:09:50;;;;;;;7.80;4.35;;;12.60;99.90;;;;;;5029711;28;20017;-70
2024/02/16 00:12:16;;;;;;;8.68;4.07;;;12.50;99.90;;;;;;5048489;28;20521;-70
2024/02/16 00:14:42;;;;;;;8.00;3.90;;;12.50;99.90;;;;;;5045670;28;20024;-70
2024/02/16 00:17:10;;;;;;;7.78;3.13;;;12.60;99.90;;;;;;5047408;28;20032;-70
2024/02/16 00:19:36;;;;;;;8.00;3.50;;;12.50;99.90;;;;;;5044761;28;20032;-69
2024/02/16 00:22:01;;;;;;;6.53;3.08;;;12.50;99.90;;;;;;5027103;28;20289;-69
2024/02/16 00:24:27;;;;;;;4.63;2.03;;;12.40;99.90;;;;;;5037080;28;20034;-70
2024/02/16 00:26:53;;;;;;;5.70;2.00;;;12.40;99.90;;;;;;5043547;28;20036;-70
2024/02/16 00:29:19;;;;;;;9.30;1.85;;;12.40;99.90;;;;;;5041237;28;20181;-70
2024/02/16 00:31:44;;;;;;;2.65;1.58;;;12.40;99.90;;;;;;5043165;28;20486;-70
2024/02/16 00:34:10;;;;;;;5.70;1.75;;;12.40;99.90;;;;;;5027618;28;20070;-69
2024/02/16 00:36:36;;;;;;;5.50;1.20;;;12.40;99.90;;;;;;5045578;28;20087;-69
2024/02/16 00:39:03;;;;;;;6.45;1.65;;;12.40;99.90;;;;;;5040444;28;20037;-70
2024/02/16 00:41:29;;;;;;;5.70;1.60;;;12.40;99.90;;;;;;5027574;28;20072;-70
2024/02/16 00:43:56;;;;;;;4.72;1.63;;;12.40;99.90;;;;;;5021991;28;20048;-70
2024/02/16 00:46:22;;;;;;;6.95;1.80;;;12.30;99.90;;;;;;5040515;28;20017;-70
2024/02/16 00:48:52;;;;;;;7.40;1.90;;;12.30;99.90;;;;;;5040609;28;20044;-69
2024/02/16 00:51:17;;;;;;;12.35;3.17;;;12.30;99.90;;;;;;5045270;28;20127;-70
2024/02/16 00:53:43;;;;;;;13.18;6.03;;;12.30;99.90;;;;;;5042554;28;20108;-70
2024/02/16 00:56:09;;;;;;;18.27;8.48;;;12.20;99.90;;;;;;5043641;28;20111;-69
2024/02/16 00:58:35;;;;;;;14.98;5.70;;;12.20;99.90;;;;;;5044635;28;20040;-69
2024/02/16 01:01:01;;;;;;;8.95;3.97;;;12.20;99.90;;;;;;5039677;28;20041;-69
2024/02/16 01:03:26;;;;;;;8.40;3.70;;;12.10;99.90;;;;;;5038346;28;20045;-70
2024/02/16 01:05:52;;;;;;;11.90;4.93;;;12.10;99.90;;;;;;5039911;28;20033;-69
2024/02/16 01:08:18;;;;;;;12.60;3.72;;;12.10;99.90;;;;;;5033768;28;20026;-69
2024/02/16 01:10:44;;;;;;;10.63;4.47;;;12.10;99.90;;;;;;5040204;28;20031;-69
2024/02/16 01:13:10;;;;;;;10.60;5.35;;;12.10;99.90;;;;;;5022431;28;20034;-70
2024/02/16 01:15:37;;;;;;;8.98;4.55;;;12.00;99.90;;;;;;5040408;28;20029;-69
2024/02/16 01:18:03;;;;;;;9.38;4.22;;;11.90;99.90;;;;;;5025162;28;20037;-69
2024/02/16 01:20:30;;;;;;;7.70;3.92;;;11.90;99.90;;;;;;5049577;28;20061;-70
2024/02/16 01:22:57;;;;;;;7.40;3.58;;;11.80;99.90;;;;;;5029419;28;20084;-69
2024/02/16 01:25:23;;;;;;;8.88;3.40;;;11.80;99.90;;;;;;5044685;28;20021;-70
2024/02/16 01:27:48;;;;;;;8.55;3.55;;;11.70;99.90;;;;;;5044930;28;20394;-69
2024/02/16 01:30:15;;;;;;;4.63;1.90;;;11.70;99.90;;;;;;5053484;28;20040;-70
2024/02/16 01:32:41;;;;;;;5.75;2.55;;;11.70;99.90;;;;;;5047992;28;20090;-69
2024/02/16 01:35:07;;;;;;;3.58;1.95;;;11.60;99.90;;;;;;5040769;28;20029;-70
2024/02/16 01:37:32;;;;;;;4.90;2.33;;;11.60;99.90;;;;;;5042151;28;20094;-69
2024/02/16 01:39:58;;;;;;;5.50;1.95;;;11.60;99.90;;;;;;5042174;28;20021;-70
2024/02/16 01:42:24;;;;;;;6.45;1.67;;;11.60;99.90;;;;;;5045436;28;20041;-69
2024/02/16 01:44:50;;;;;;;5.28;1.75;;;11.60;99.90;;;;;;5042268;28;20139;-69
2024/02/16 01:47:18;;;;;;;5.00;1.75;;;11.60;99.90;;;;;;5040343;28;20028;-69
2024/02/16 01:49:44;;;;;;;;;;;11.60;99.90;;;;;;5047571;28;20415;-69
2024/02/16 01:52:10;;;;;;;7.63;1.92;;;11.60;99.90;;;;;;5045970;28;20004;-70
2024/02/16 01:54:36;;;;;;;3.00;1.58;;;11.70;99.90;;;;;;5045968;28;20060;-69
2024/02/16 01:57:02;;;;;;;3.72;1.42;;;11.50;99.90;;;;;;5047339;28;20097;-69
2024/02/16 01:59:28;;;;;;;5.28;1.48;;;11.60;99.90;;;;;;5027740;28;20513;-69
2024/02/16 02:01:54;;;;;;;2.85;1.70;;;11.60;99.90;;;;;;5053191;28;20040;-70
2024/02/16 02:04:19;;;;;;;2.97;1.42;;;11.60;99.90;;;;;;5028568;28;20025;-69
2024/02/16 02:06:45;;;;;;;6.05;2.00;;;11.60;99.90;;;;;;5047143;28;20089;-69
2024/02/16 02:09:11;;;;;;;7.20;2.42;;;11.60;99.90;;;;;;5028480;28;20037;-70
2024/02/16 02:11:37;;;;;;;7.00;3.47;;;11.60;99.90;;;;;;5045552;28;20049;-69
2024/02/16 02:14:03;;;;;;;9.07;4.03;;;11.50;99.90;;;;;;5046165;28;20048;-69
2024/02/16 02:16:28;;;;;;;6.22;3.78;;;11.50;99.90;;;;;;5046078;28;20469;-69
2024/02/16 02:18:54;;;;;;;9.68;3.40;;;11.50;99.90;;;;;;5042726;28;20056;-70
2024/02/16 02:21:20;;;;;;;4.55;2.00;;;11.50;99.90;;;;;;5035882;28;20025;-69
2024/02/16 02:23:46;;;;;;;3.95;2.00;;;11.40;99.90;;;;;;5043167;28;20036;-69
2024/02/16 02:26:16;;;;;;;2.67;1.58;;;11.40;99.90;;;;;;5039181;28;20017;-69
2024/02/16 02:28:42;;;;;;;9.18;2.03;;;11.30;99.90;;;;;;5048239;28;20040;-69
2024/02/16 02:31:08;;;;;;;3.60;1.65;;;11.30;99.90;;;;;;5041401;28;20032;-69
2024/02/16 02:33:35;;;;;;;3.53;1.45;;;11.30;99.90;;;;;;5043953;28;20033;-69
2024/02/16 02:36:00;;;;;;;5.07;1.83;;;11.30;99.90;;;;;;5046639;28;20037;-69
2024/02/16 02:38:27;;;;;;;3.67;1.50;;;11.30;99.90;;;;;;5024349;28;20031;-69
2024/02/16 02:40:52;;;;;;;5.65;1.55;;;11.30;99.90;;;;;;5039166;28;20047;-69
2024/02/16 02:43:19;;;;;;;2.78;1.60;;;11.30;99.90;;;;;;5024593;28;20036;-69
2024/02/16 02:45:44;;;;;;;8.20;1.67;;;11.30;99.90;;;;;;5043156;28;20021;-69
2024/02/16 02:48:10;;;;;;;4.00;1.50;;;11.30;99.90;;;;;;5044738;28;20508;-69
2024/02/16 02:50:36;;;;;;;4.47;1.50;;;11.30;99.90;;;;;;5044823;28;20029;-69
2024/02/16 02:53:01;;;;;;;7.53;1.90;;;11.40;99.90;;;;;;5042222;28;20029;-69
2024/02/16 02:55:27;;;;;;;5.72;1.95;;;11.40;99.90;;;;;;5045929;28;20032;-69
2024/02/16 02:57:52;;;;;;;5.63;1.80;;;11.60;99.90;;;;;;5027546;28;20571;-69
2024/02/16 03:00:19;;;;;;;3.83;1.20;;;11.60;99.90;;;;;;5022720;28;20029;-69
2024/02/16 03:02:44;;;;;;;6.82;1.55;;;11.70;99.90;;;;;;5026635;28;20116;-69
2024/02/16 03:05:11;;;;;;;5.00;1.30;;;11.80;99.90;;;;;;5042519;28;20140;-69
2024/02/16 03:07:37;;;;;;;4.28;1.98;;;11.80;99.90;;;;;;5045558;28;20040;-69
2024/02/16 03:10:04;;;;;;;3.78;1.50;;;11.90;99.90;;;;;;5044684;28;20111;-69
2024/02/16 03:12:32;;;;;;;2.67;1.50;;;11.90;99.90;;;;;;5044857;28;20029;-69
2024/02/16 03:14:58;;;;;;;5.82;1.65;;;11.90;99.90;;;;;;5042799;28;20048;-69
2024/02/16 03:17:24;;;;;;;2.78;1.45;;;12.00;99.90;;;;;;5044236;28;20017;-69
2024/02/16 03:19:50;;;;;;;7.05;1.40;;;12.00;99.90;;;;;;5038585;28;20061;-70
2024/02/16 03:22:15;;;;;;;3.25;1.52;;;12.00;99.90;;;;;;5037740;28;20028;-69
2024/02/16 03:24:41;;;;;;;4.45;1.30;;;12.10;99.90;;;;;;5045130;28;20110;-69
2024/02/16 03:27:06;;;;;;;7.15;1.67;;;12.10;99.90;;;;;;5040898;28;20029;-69
2024/02/16 03:29:32;;;;;;;3.00;1.40;;;12.20;99.90;;;;;;5041237;28;20398;-70
2024/02/16 03:31:58;;;;;;;3.63;1.80;;;12.20;99.90;;;;;;5044209;28;20496;-70
2024/02/16 03:34:24;;;;;;;5.32;1.35;;;12.20;99.90;;;;;;5040372;28;20028;-69
2024/02/16 03:36:49;;;;;;;3.90;1.35;;;12.20;99.90;;;;;;5045688;28;20592;-69
2024/02/16 03:39:19;;;;;;;6.35;1.58;;;12.20;99.90;;;;;;5044940;28;20039;-70
2024/02/16 03:41:48;;;;;;;5.63;1.50;;;12.30;99.90;;;;;;5039394;28;20029;-69
2024/02/16 03:44:15;;;;;;;3.55;1.50;;;12.30;99.90;;;;;;5048851;28;20455;-69
2024/02/16 03:46:41;;;;;;;3.37;1.37;;;12.30;99.90;;;;;;5026987;28;20028;-69
2024/02/16 03:49:07;;;;;;;2.72;1.20;;;12.30;99.90;;;;;;5043402;28;20031;-69
2024/02/16 03:51:33;;;;;;;4.97;1.80;;;12.30;99.90;;;;;;5019193;28;20021;-70
2024/02/16 03:53:59;;;;;;;4.40;1.25;;;12.30;99.90;;;;;;5046392;28;20544;-69
2024/02/16 03:56:24;;;;;;;5.50;1.77;;;12.30;99.90;;;;;;5033453;28;20108;-69
2024/02/16 03:58:50;;;;;;;2.03;1.33;;;12.30;99.90;;;;;;5052898;28;20067;-69
2024/02/16 04:01:16;;;;;;;2.03;1.25;;;12.30;99.90;;;;;;5043772;28;20110;-69
2024/02/16 04:03:41;;;;;;;4.45;1.90;;;12.30;99.90;;;;;;5032741;28;20033;-69
2024/02/16 04:06:08;;;;;;;4.55;1.33;;;12.30;99.90;;;;;;5034543;28;20025;-69
2024/02/16 04:08:33;;;;;;;8.18;1.40;;;12.30;99.90;;;;;;5048959;28;20029;-69
2024/02/16 04:10:59;;;;;;;3.20;1.25;;;12.30;99.90;;;;;;5054750;28;20444;-70
2024/02/16 04:13:25;;;;;;;8.18;1.30;;;12.30;99.90;;;;;;5041074;28;20028;-69
2024/02/16 04:15:50;;;;;;;3.92;1.50;;;12.30;99.90;;;;;;5058530;28;20115;-70
2024/02/16 04:18:16;;;;;;;3.90;1.40;;;12.30;99.90;;;;;;5055752;28;20548;-69
2024/02/16 04:20:41;;;;;;;4.22;1.33;;;12.30;99.90;;;;;;5052278;28;20071;-70
2024/02/16 04:23:07;;;;;;;4.72;1.50;;;12.30;99.90;;;;;;5031263;28;20044;-69
2024/02/16 04:25:32;;;;;;;3.00;1.40;;;12.30;99.90;;;;;;5047730;28;20112;-69
2024/02/16 04:27:58;;;;;;;2.53;1.30;;;12.30;99.90;;;;;;5038851;28;20478;-69
2024/02/16 04:30:24;;;;;;;3.45;1.55;;;12.30;99.90;;;;;;5039878;28;20025;-70
2024/02/16 04:32:49;;;;;;;3.50;1.30;;;12.30;99.90;;;;;;5049133;28;20099;-68
2024/02/16 04:35:15;;;;;;;1.90;1.20;;;12.20;99.90;;;;;;5046709;28;20063;-69
2024/02/16 04:37:41;;;;;;;3.75;1.42;;;12.20;99.90;;;;;;5045107;28;20041;-69
2024/02/16 04:40:08;;;;;;;5.80;1.38;;;12.20;99.90;;;;;;5046325;28;20104;-69
2024/02/16 04:42:34;;;;;;;5.65;1.42;;;12.20;99.90;;;;;;5045545;28;20447;-69
2024/02/16 04:44:59;;;;;;;3.35;1.10;;;12.20;99.90;;;;;;5027284;28;20413;-69
2024/02/16 04:47:25;;;;;;;3.42;1.40;;;12.20;99.90;;;;;;5045111;28;20038;-69
2024/02/16 04:49:51;;;;;;;7.25;1.35;;;12.30;99.90;;;;;;5044266;28;20029;-69
2024/02/16 04:52:17;;;;;;;3.85;1.30;;;12.20;99.90;;;;;;5046805;28;20048;-69
2024/02/16 04:54:43;;;;;;;5.82;1.30;;;12.30;99.90;;;;;;5045989;28;20391;-69
2024/02/16 04:57:08;;;;;;;3.30;1.42;;;12.30;99.90;;;;;;5041863;28;20030;-70
2024/02/16 04:59:34;;;;;;;2.97;1.17;;;12.30;99.90;;;;;;5038248;28;20056;-69
2024/02/16 05:01:59;;;;;;;5.82;1.25;;;12.30;99.90;;;;;;5055949;28;20048;-70
2024/02/16 05:04:25;;;;;;;5.50;1.33;;;12.30;99.90;;;;;;5044064;28;20440;-70
2024/02/16 05:06:52;;;;;;;3.80;1.42;;;12.40;99.90;;;;;;5041776;28;20524;-69
2024/02/16 05:09:18;;;;;;;2.93;1.03;;;12.40;99.90;;;;;;5028177;28;20213;-69
2024/02/16 05:11:44;;;;;;;4.15;1.67;;;12.40;99.90;;;;;;5044775;28;20563;-70
2024/02/16 05:14:14;;;;;;;3.13;1.40;;;12.40;99.90;;;;;;5043530;28;20029;-69
2024/02/16 05:16:44;;;;;;;7.22;1.60;;;12.40;99.90;;;;;;5044451;28;20143;-69
2024/02/16 05:19:09;;;;;;;2.78;1.40;;;12.40;99.90;;;;;;5042083;28;20024;-69
2024/02/16 05:21:35;;;;;;;3.13;1.52;;;12.40;99.90;;;;;;5044632;28;20091;-69
2024/02/16 05:24:01;;;;;;;5.60;1.45;;;12.40;99.90;;;;;;5046364;28;20033;-69
2024/02/16 05:26:27;;;;;;;4.93;1.40;;;12.40;99.90;;;;;;5045193;28;20025;-69
2024/02/16 05:28:53;;;;;;;4.47;1.60;;;12.50;99.90;;;;;;5042255;28;20033;-69
2024/02/16 05:31:19;;;;;;;3.67;1.20;;;12.50;99.90;;;;;;5043637;28;20067;-69
2024/02/16 05:33:47;;;;;;;5.13;1.80;;;12.50;99.90;;;;;;5046700;28;20036;-69
2024/02/16 05:36:20;;;;;;;5.20;1.60;;;12.50;99.90;;;;;;5041573;28;20405;-69
2024/02/16 05:38:47;;;;;;;5.88;1.50;;;12.50;99.90;;;;;;5042445;28;20100;-69
2024/02/16 05:41:12;;;;;;;4.10;1.58;;;12.50;99.90;;;;;;5043475;28;20087;-69
2024/02/16 05:43:38;;;;;;;8.18;1.30;;;12.50;99.90;;;;;;5040667;28;20030;-69
2024/02/16 05:46:07;;;;;;;6.93;1.73;;;12.50;99.90;;;;;;5045445;28;20029;-69
2024/02/16 05:48:39;;;;;;;7.07;1.35;;;12.50;99.90;;;;;;5043301;28;20048;-69
2024/02/16 05:51:06;;;;;;;2.75;1.20;;;12.50;99.90;;;;;;5040431;28;20022;-69
2024/02/16 05:53:33;;;;;;;7.38;1.25;;;12.50;99.90;;;;;;5046131;28;20037;-70
2024/02/16 05:55:58;;;;;;;3.60;1.17;;;12.50;99.90;;;;;;5046225;28;20171;-69
2024/02/16 05:58:24;;;;;;;1.88;1.17;;;12.50;99.90;;;;;;5045497;28;20444;-69
2024/02/16 06:00:50;;;;;;;4.45;1.50;;;12.50;99.90;;;;;;5044162;28;20036;-69
2024/02/16 06:03:16;;;;;;;8.18;1.35;;;12.50;99.90;;;;;;5039832;28;20072;-69
2024/02/16 06:05:44;;;;;;;3.60;1.20;;;12.50;99.90;;;;;;5061184;28;20592;-69
2024/02/16 06:08:10;;;;;;;6.95;1.48;;;12.50;99.90;;;;;;5028378;28;20052;-69
2024/02/16 06:10:36;;;;;;;4.78;1.40;;;12.40;99.90;;;;;;5040958;28;20029;-69
2024/02/16 06:13:01;;;;;;;2.13;1.10;;;12.40;99.90;;;;;;5026724;28;20504;-69
2024/02/16 06:15:27;;;;;;;2.88;1.20;;;12.40;99.90;;;;;;5047208;28;20037;-69
2024/02/16 06:17:52;;;;;;;2.17;1.50;;;12.40;99.90;;;;;;5037554;28;20082;-70
2024/02/16 06:20:18;;;;;;;3.08;1.35;;;12.50;99.90;;;;;;5044626;28;20481;-69
2024/02/16 06:22:44;;;;;;;5.75;1.45;;;12.40;99.90;;;;;;5041654;28;20035;-69
2024/02/16 06:25:10;;;;;;;2.60;1.35;;;12.40;99.90;;;;;;5036790;28;20037;-69
2024/02/16 06:27:35;;;;;;;3.85;1.38;;;12.40;99.90;;;;;;5038253;28;20033;-69
2024/02/16 06:30:04;;;;;;;6.68;1.63;;;12.40;99.90;;;;;;5041738;28;20083;-69
2024/02/16 06:32:31;;;;;;;5.70;1.52;;;12.40;99.90;;;;;;5021225;28;20029;-70
2024/02/16 06:34:57;;;;;;;2.70;1.58;;;12.40;99.90;;;;;;5037617;28;20086;-69
2024/02/16 06:37:22;;;;;;;3.20;1.35;;;12.40;99.90;;;;;;5026026;28;20032;-70
2024/02/16 06:39:48;;;;;;;8.25;1.63;;;12.40;99.90;;;;;;5025004;28;20033;-69
2024/02/16 06:42:14;;;;;;;6.05;1.48;;;12.40;99.90;;;;;;5044533;28;20470;-70
2024/02/16 06:44:40;;;;;;;6.10;1.55;;;12.40;99.90;;;;;;5041482;28;20063;-69
2024/02/16 06:47:06;;;;;;;4.07;1.52;;;12.40;99.90;;;;;;5026067;28;20411;-69
2024/02/16 06:49:31;;;;;;;2.75;1.40;;;12.40;99.90;;;;;;5038052;28;20084;-69
2024/02/16 06:51:57;;;;;;;4.32;1.23;;;12.50;99.90;;;;;;5035209;28;20634;-69
2024/02/16 06:54:24;;;;;;;3.95;1.20;;;12.50;99.90;;;;;;5025069;28;20028;-69
2024/02/16 06:56:51;;;;;;;4.70;1.60;;;12.50;99.90;;;;;;5038456;28;20033;-70
2024/02/16 06:59:17;;;;;;;3.80;1.30;;;12.50;99.90;;;;;;5041924;28;20025;-69
2024/02/16 07:01:43;;;;;;;5.55;1.30;;;12.50;99.90;;;;;;5039579;28;20124;-69
2024/02/16 07:04:09;;;;;;;2.72;1.50;;;12.50;99.90;;;;;;5020703;28;20123;-69
2024/02/16 07:06:35;;;;;;;3.10;1.50;;;12.50;99.90;;;;;;5044438;28;20198;-73
2024/02/16 07:09:02;;;;;;;1.48;1.13;;;12.50;99.90;;;;;;5043265;28;20017;-68
2024/02/16 07:11:28;;;;;;;4.13;1.55;;;12.50;99.90;;;;;;5027650;28;20032;-69
2024/02/16 07:13:53;;;;;;;2.17;1.10;;;12.50;99.90;;;;;;5043566;28;20025;-69
2024/02/16 07:16:19;;;;;;;5.38;1.40;;;12.50;99.90;;;;;;5042898;28;20148;-69
2024/02/16 07:18:44;;;;;;;3.05;1.40;;;12.50;99.90;;;;;;5038850;28;20033;-70
2024/02/16 07:21:11;;;;;;;17.42;2.10;;;12.50;99.90;;;;;;5042858;28;20450;-71
2024/02/16 07:23:37;;;;;;;7.32;1.38;;;12.50;99.90;;;;;;5037726;28;20033;-69
2024/02/16 07:26:03;;;;;;;5.40;1.10;;;12.60;99.90;;;;;;5040473;28;20029;-70
2024/02/16 07:28:28;;;;;;;2.17;1.30;;;12.60;99.90;;;;;;5039787;28;20699;-70
2024/02/16 07:30:54;;;;;;;3.30;1.63;;;12.60;99.90;;;;;;5020379;28;20072;-70
2024/02/16 07:33:20;;;;;;;2.08;1.30;;;12.60;99.90;;;;;;5034992;28;20033;-71
2024/02/16 07:35:47;;;;;;;4.40;1.60;;;12.70;99.90;;;;;;5037378;28;20047;-69
2024/02/16 07:38:12;;;;;;;3.70;1.55;;;12.60;99.90;;;;;;5041560;28;20062;-70
2024/02/16 07:40:39;;;;;;;3.50;1.50;;;12.70;99.90;;;;;;5039930;28;20048;-71
2024/02/16 07:43:05;;;;;;;3.10;1.58;;;12.70;99.90;;;;;;5037130;28;20029;-70
2024/02/16 07:45:31;;;;;;;6.75;1.50;;;12.70;99.90;;;;;;5040118;28;20074;-70
2024/02/16 07:47:57;;;;;;;2.67;1.20;;;12.80;99.90;;;;;;5035862;28;20026;-70
2024/02/16 07:50:23;;;;;;;2.38;1.40;;;12.80;99.90;;;;;;5035479;28;20450;-70
2024/02/16 07:52:49;;;;;;;5.97;1.70;;;12.80;99.90;;;;;;5039550;28;20033;-70
2024/02/16 07:55:18;;;;;;;6.00;1.50;;;12.90;99.90;;;;;;5028618;28;20060;-70
2024/02/16 07:57:44;;;;;;;3.50;1.42;;;12.90;99.90;;;;;;5045296;28;20563;-70
2024/02/16 08:00:10;;;;;;;2.70;1.40;;;12.90;99.90;;;;;;5043730;28;20114;-69
2024/02/16 08:02:37;;;;;;;2.67;1.45;;;13.00;99.90;;;;;;5049167;28;20116;-69
2024/02/16 08:05:02;;;;;;;5.25;1.38;;;13.00;99.90;;;;;;5043815;28;20501;-70
2024/02/16 08:07:28;;;;;;;5.18;1.40;;;13.10;99.90;;;;;;5025124;28;20541;-70
2024/02/16 08:09:54;;;;;;;6.53;1.40;;;13.10;99.90;;;;;;5042786;28;20063;-70
2024/02/16 08:12:21;;;;;;;2.95;1.63;;;13.20;99.90;;;;;;5041905;28;20043;-70
2024/02/16 08:14:46;;;;;;;3.83;1.33;;;13.20;99.90;;;;;;5041660;28;20033;-71
2024/02/16 08:17:12;;;;;;;4.70;1.60;;;13.30;99.90;;;;;;5042973;28;20044;-70
2024/02/16 08:19:38;;;;;;;6.82;1.80;;;13.30;99.90;;;;;;5042744;28;20029;-70
2024/02/16 08:22:08;;;;;;;7.18;1.58;;;13.30;99.90;;;;;;5045129;28;20111;-70
2024/02/16 08:24:35;;;;;;;3.30;1.45;;;13.40;99.90;;;;;;5040702;28;20055;-71
2024/02/16 08:27:00;;;;;;;4.82;1.40;;;13.40;99.90;;;;;;5047077;28;20029;-70
2024/02/16 08:29:26;;;;;;;4.35;1.42;;;13.50;99.90;;;;;;5041765;28;20040;-70
2024/02/16 08:31:52;;;;;;;4.63;1.33;;;13.50;99.90;;;;;;5043131;28;20032;-71
2024/02/16 08:34:18;;;;;;;4.13;1.52;;;13.50;99.90;;;;;;5042734;28;20036;-70
2024/02/16 08:36:48;;;;;;;2.75;1.50;;;13.60;99.90;;;;;;5044697;28;20370;-70
2024/02/16 08:39:14;;;;;;;5.45;1.50;;;13.60;99.90;;;;;;5045938;28;20025;-69
2024/02/16 08:41:40;;;;;;;4.35;1.67;;;13.60;99.90;;;;;;5044377;28;20025;-70
2024/02/16 08:44:09;;;;;;;8.88;1.55;;;13.70;99.90;;;;;;5041525;28;20033;-70
2024/02/16 08:46:35;;;;;;;4.00;1.42;;;13.70;99.90;;;;;;5042239;28;20108;-71
2024/02/16 08:49:01;;;;;;;5.57;1.33;;;13.70;99.90;;;;;;5037520;28;20033;-70
2024/02/16 08:51:27;;;;;;;5.18;1.48;;;13.70;99.90;;;;;;5041593;28;20132;-70
2024/02/16 08:53:53;;;;;;;4.47;1.40;;;13.70;99.90;;;;;;5044171;28;20119;-71
2024/02/16 08:56:18;;;;;;;2.65;1.33;;;13.80;99.90;;;;;;5026832;28;20033;-69
2024/02/16 08:58:44;;;;;;;4.35;1.50;;;13.80;99.90;;;;;;5041898;28;20033;-70
2024/02/16 09:01:09;;;;;;;11.43;2.50;;;13.80;99.90;;;;;;5025438;28;20037;-70
2024/02/16 09:03:38;;;;;;;4.70;1.50;;;13.90;99.90;;;;;;5027827;28;20111;-71
2024/02/16 09:06:04;;;;;;;3.15;1.50;;;13.90;99.90;;;;;;5041920;28;20056;-71
2024/02/16 09:08:33;;;;;;;6.47;1.85;;;13.90;99.90;;;;;;5026005;28;20021;-70
2024/02/16 09:11:05;;;;;;;3.25;1.35;;;13.90;99.90;;;;;;5038387;28;20063;-70
2024/02/16 09:13:35;;;;;;;2.88;1.55;;;13.90;99.90;;;;;;5020859;28;20033;-71
2024/02/16 09:16:03;;;;;;;3.67;1.55;;;14.00;99.90;;;;;;5044220;28;20116;-71
2024/02/16 09:18:29;;;;;;;4.18;1.70;;;14.00;99.90;;;;;;5023497;28;20028;-70
2024/02/16 09:20:55;;;;;;;4.78;1.13;;;14.00;99.90;;;;;;5025637;28;20029;-70
2024/02/16 09:23:20;;;;;;;2.70;1.23;;;14.00;99.90;;;;;;5025539;28;20037;-70
2024/02/16 09:25:46;;;;;;;1.70;1.20;;;14.00;99.90;;;;;;5043285;28;20029;-70
2024/02/16 09:28:12;;;;;;;3.00;1.52;;;14.00;99.90;;;;;;5040860;28;20052;-70
2024/02/16 09:30:38;;;;;;;4.53;1.92;;;14.10;99.90;;;;;;5023515;28;20017;-69
2024/02/16 09:33:04;;;;;;;4.05;1.48;;;14.10;99.90;;;;;;5037273;28;20029;-71
2024/02/16 09:35:30;;;;;;;5.28;1.40;;;14.10;99.90;;;;;;5043177;28;20059;-70
2024/02/16 09:37:56;;;;;;;8.93;1.92;;;14.10;99.90;;;;;;5037756;28;20047;-70
2024/02/16 09:40:22;;;;;;;3.45;1.40;;;14.20;99.90;;;;;;5041057;28;20051;-70
2024/02/16 09:42:51;;;;;;;3.97;1.45;;;14.20;99.90;;;;;;5042524;28;20029;-70
2024/02/16 09:45:17;;;;;;;2.90;1.33;;;14.20;99.90;;;;;;5039519;28;20036;-70
2024/02/16 09:47:45;;;;;;;4.15;1.38;;;14.30;99.90;;;;;;5042069;28;20017;-70
2024/02/16 09:50:10;;;;;;;4.23;1.93;;;14.40;99.90;;;;;;5039864;28;20032;-69
2024/02/16 09:52:37;;;;;;;3.17;1.33;;;14.40;99.90;;;;;;5044398;28;20270;-70
2024/02/16 09:55:06;;;;;;;2.63;1.30;;;14.50;99.90;;;;;;5038953;28;20025;-71
2024/02/16 09:57:32;;;;;;;4.65;1.67;;;14.50;99.90;;;;;;5041238;28;20098;-71
2024/02/16 09:59:57;;;;;;;6.53;1.85;;;14.60;99.90;;;;;;5035434;28;20021;-71
2024/02/16 10:02:23;;;;;;;4.22;1.20;;;14.60;99.90;;;;;;5046387;28;20488;-70
2024/02/16 10:04:49;;;;;;;3.08;1.50;;;14.70;99.90;;;;;;5033799;28;20029;-70
2024/02/16 10:07:15;;;;;;;3.22;1.42;;;14.70;99.90;;;;;;5042577;28;20106;-70
2024/02/16 10:09:40;;;;;;;5.13;2.08;;;14.70;99.90;;;;;;5041639;28;20738;-69
2024/02/16 10:12:06;;;;;;;4.07;1.60;;;14.80;99.90;;;;;;5038876;28;20116;-70
2024/02/16 10:14:33;;;;;;;8.77;1.65;;;14.80;99.90;;;;;;5036701;28;20025;-70
2024/02/16 10:17:06;;;;;;;2.58;1.05;;;14.80;99.90;;;;;;5041675;28;20037;-70
2024/02/16 10:19:39;;;;;;;2.85;1.67;;;14.80;99.90;;;;;;5038944;28;20151;-70
2024/02/16 10:22:09;;;;;;;3.40;1.25;;;14.80;99.90;;;;;;5038867;28;20121;-71
2024/02/16 10:24:34;;;;;;;2.08;1.33;;;14.80;99.90;;;;;;5039901;28;20033;-70
2024/02/16 10:27:00;;;;;;;3.33;1.60;;;14.90;99.90;;;;;;5026111;28;20063;-70
2024/02/16 10:29:27;;;;;;;2.92;1.70;;;14.90;99.90;;;;;;5041868;28;20028;-70
2024/02/16 10:31:53;;;;;;;5.72;1.63;;;14.90;99.90;;;;;;5039987;28;20025;-70
2024/02/16 10:34:21;;;;;;;6.05;1.70;;;14.90;99.90;;;;;;5042254;28;20438;-69
2024/02/16 10:36:46;;;;;;;5.50;1.30;;;14.90;99.90;;;;;;5049827;28;20036;-69
2024/02/16 10:39:13;;;;;;;3.08;1.38;;;14.90;99.90;;;;;;5043235;28;20033;-70
2024/02/16 10:41:41;;;;;;;2.78;1.15;;;14.90;99.90;;;;;;5038420;28;20029;-70
2024/02/16 10:44:07;;;;;;;2.88;1.25;;;15.00;99.90;;;;;;5037894;28;20497;-70
2024/02/16 10:46:34;;;;;;;2.63;1.40;;;15.00;99.90;;;;;;5038682;28;20056;-70
2024/02/16 10:49:00;;;;;;;3.28;1.52;;;15.00;99.90;;;;;;5025883;28;20079;-70
2024/02/16 10:51:34;;;;;;;7.10;1.60;;;15.00;99.90;;;;;;5040843;28;20779;-70
2024/02/16 10:54:01;;;;;;;3.38;1.50;;;15.00;99.90;;;;;;5042196;28;20124;-69
2024/02/16 10:56:37;;;;;;;2.60;1.50;;;15.10;99.90;;;;;;5022404;28;20121;-70
2024/02/16 10:59:04;;;;;;;5.00;1.88;;;15.10;99.90;;;;;;5042388;28;20046;-69
2024/02/16 11:01:40;;;;;;;5.30;1.65;;;15.10;99.90;;;;;;5042791;28;20062;-70
2024/02/16 11:04:10;;;;;;;5.35;1.30;;;15.10;99.90;;;;;;5041248;28;20102;-70
2024/02/16 11:06:58;;;;;;;6.40;1.90;;;15.10;99.90;;;;;;5040476;28;20029;-70
2024/02/16 11:09:34;;;;;;;5.07;1.60;;;15.20;99.90;;;;;;5022351;28;20532;-70
2024/02/16 11:12:02;;;;;;;5.95;1.60;;;15.20;99.90;;;;;;5027390;28;20070;-70
2024/02/16 11:14:39;;;;;;;2.05;1.30;;;15.20;99.90;;;;;;5031992;28;20060;-70
2024/02/16 11:17:33;;;;;;;2.92;1.15;;;15.20;99.90;;;;;;5051028;28;20079;-69
2024/02/16 11:20:00;;;;;;;6.95;1.73;;;15.30;99.90;;;;;;5044341;28;20385;-70
2024/02/16 11:22:28;;;;;;;6.43;1.73;;;15.30;99.90;;;;;;5027764;28;20099;-70
2024/02/16 11:24:54;;;;;;;4.47;1.92;;;15.30;99.90;;;;;;5044623;28;20060;-70
2024/02/16 11:27:21;;;;;;;2.97;1.40;;;15.30;99.90;;;;;;5040121;28;20068;-70
2024/02/16 11:29:47;;;;;;;5.38;1.55;;;15.40;99.90;;;;;;5044438;28;20021;-70
2024/02/16 11:32:13;;;;;;;3.22;1.45;;;15.40;99.90;;;;;;5027581;28;20095;-69
2024/02/16 11:34:39;;;;;;;7.70;1.50;;;15.40;99.90;;;;;;5040693;28;20771;-70
2024/02/16 11:37:05;;;;;;;3.17;1.45;;;15.40;99.90;;;;;;5024430;28;20033;-70
2024/02/16 11:39:31;;;;;;;7.53;1.48;;;15.50;99.90;;;;;;5041992;28;20513;-70
2024/02/16 11:42:11;;;;;;;7.25;1.52;;;15.80;99.90;;;;;;5045015;28;20033;-70
2024/02/16 11:44:42;;;;;;;2.65;1.50;;;16.00;99.90;;;;;;5039203;28;20039;-70
2024/02/16 11:47:12;;;;;;;3.92;1.45;;;16.20;99.90;;;;;;5045811;28;20119;-70
2024/02/16 11:49:38;;;;;;;3.47;1.63;;;16.30;99.90;;;;;;5042178;28;20033;-69
2024/02/16 11:52:07;;;;;;;5.55;2.00;;;16.50;99.90;;;;;;5039088;28;20764;-71
2024/02/16 11:54:33;;;;;;;4.20;1.85;;;16.60;99.90;;;;;;5048342;28;20079;-70
2024/02/16 11:56:59;;;;;;;7.25;1.83;;;16.80;99.90;;;;;;5051598;28;20417;-70
2024/02/16 11:59:25;;;;;;;3.20;1.60;;;17.00;99.90;;;;;;5053159;28;20032;-70
2024/02/16 12:01:54;;;;;;;4.00;2.00;;;17.50;99.90;;;;;;5048165;28;20032;-70
2024/02/16 12:04:30;;;;;;;5.90;1.98;;;17.90;99.90;;;;;;5048736;28;20516;-70
2024/02/16 12:07:00;;;;;;;4.90;2.47;;;18.50;99.90;;;;;;5038646;28;20174;-70
2024/02/16 12:09:27;;;;;;;7.70;2.78;;;18.90;99.90;;;;;;5049507;28;20042;-71
2024/02/16 12:11:54;;;;;;;6.57;2.22;;;19.10;99.90;;;;;;5046121;28;20528;-71
2024/02/16 12:14:22;;;;;;;6.68;2.58;;;19.10;99.90;;;;;;5044695;28;20532;-70
2024/02/16 12:16:51;;;;;;;;;;;19.20;99.90;;;;;;5041591;28;20068;-70
2024/02/16 12:19:20;;;;;;;3.85;1.60;;;19.30;99.90;;;;;;5023801;28;19936;-71
2024/02/16 12:21:51;;;;;;;6.40;1.80;;;19.30;99.90;;;;;;5043555;28;20020;-70
2024/02/16 12:24:18;;;;;;;4.18;1.95;;;19.50;99.90;;;;;;5024235;28;20120;-71
2024/02/16 12:26:43;;;;;;;4.65;1.65;;;19.60;99.90;;;;;;5029783;28;20029;-71
2024/02/16 12:29:12;;;;;;;6.68;1.50;;;19.80;99.90;;;;;;5040116;28;20037;-70
2024/02/16 12:31:41;;;;;;;3.75;1.80;;;19.80;99.90;;;;;;5040120;28;20038;-70
2024/02/16 12:34:07;;;;;;;7.03;2.20;;;19.90;99.90;;;;;;5041561;28;20065;-71
2024/02/16 12:36:36;;;;;;;10.50;2.13;;;19.60;99.90;;;;;;5026703;28;20040;-70
2024/02/16 12:39:06;;;;;;;6.03;2.03;;;19.50;99.90;;;;;;5044480;28;20041;-71
2024/02/16 12:41:38;;;;;;;3.10;1.02;;;19.30;99.70;;;;;;5043645;28;20517;-70
2024/02/16 12:44:04;;;;;;;4.32;1.77;;;19.20;99.90;;;;;;5023238;28;20025;-70